Time;durP1;ratioP1;P1;durP2;ratioP2;P2;SDS_P1;SDS_P2;PMS_P1;PMS_P2;Temp;Humidity;BMP_temperature;BMP_pressure;BME280_temperature;BME280_humidity;BME280_pressure;Samples;Min_cycle;Max_cycle;Signal;HPM_P1;HPM_P2
2022/03/21 00:01:02;;;;;;;10.93;7.53;;;11.80;57.60;;;;;;5055057;28;20017;-72
2022/03/21 00:03:29;;;;;;;9.38;7.50;;;11.70;57.90;;;;;;5055052;28;20028;-69
2022/03/21 00:05:57;;;;;;;10.32;6.75;;;11.70;57.60;;;;;;5055052;28;20049;-69
2022/03/21 00:08:24;;;;;;;8.80;7.47;;;11.60;57.60;;;;;;5054754;28;20041;-70
2022/03/21 00:10:51;;;;;;;10.23;8.05;;;11.50;58.00;;;;;;5054820;28;20027;-71
2022/03/21 00:13:18;;;;;;;11.23;7.72;;;11.50;57.90;;;;;;5055229;28;20021;-70
2022/03/21 00:15:46;;;;;;;10.95;8.00;;;11.50;58.10;;;;;;5055020;28;20079;-71
2022/03/21 00:18:13;;;;;;;9.80;7.63;;;11.50;58.10;;;;;;5054763;28;20032;-70
2022/03/21 00:20:45;;;;;;;8.85;7.40;;;11.40;58.10;;;;;;5054639;28;20112;-70
2022/03/21 00:23:11;;;;;;;9.27;7.05;;;11.40;58.30;;;;;;5054928;28;20525;-69
2022/03/21 00:25:37;;;;;;;11.20;7.93;;;11.40;58.10;;;;;;5054640;28;20047;-70
2022/03/21 00:28:03;;;;;;;9.35;7.60;;;11.40;58.00;;;;;;5052991;28;20490;-71
2022/03/21 00:30:30;;;;;;;9.18;7.40;;;11.40;58.10;;;;;;5054528;28;20116;-71
2022/03/21 00:32:56;;;;;;;10.23;7.82;;;11.40;58.20;;;;;;5054517;28;20108;-71
2022/03/21 00:35:22;;;;;;;9.63;7.75;;;11.40;58.40;;;;;;5054470;28;20025;-70
2022/03/21 00:37:49;;;;;;;10.55;7.32;;;11.40;58.70;;;;;;5054508;28;20032;-70
2022/03/21 00:40:17;;;;;;;10.57;7.80;;;11.30;58.00;;;;;;5052728;28;20053;-69
2022/03/21 00:42:44;;;;;;;9.35;7.82;;;11.30;58.10;;;;;;5054589;28;20021;-70
2022/03/21 00:45:17;;;;;;;9.52;7.40;;;11.20;58.20;;;;;;5054839;28;20028;-70
2022/03/21 00:47:47;;;;;;;8.95;7.03;;;11.20;58.30;;;;;;5056683;28;20123;-71
2022/03/21 00:50:14;;;;;;;9.38;7.55;;;11.20;58.40;;;;;;5055213;28;20103;-73
2022/03/21 00:52:48;;;;;;;8.63;7.03;;;11.20;58.20;;;;;;5054420;28;20103;-70
2022/03/21 00:55:15;;;;;;;;;;;11.20;58.20;;;;;;5054799;28;20017;-71
2022/03/21 00:57:42;;;;;;;10.00;7.28;;;11.20;58.60;;;;;;5054176;28;19909;-70
2022/03/21 01:00:29;;;;;;;9.00;7.18;;;11.20;58.30;;;;;;5053984;28;20056;-70
2022/03/21 01:02:57;;;;;;;9.05;7.35;;;11.10;58.20;;;;;;5054127;28;20029;-71
2022/03/21 01:05:23;;;;;;;9.20;6.90;;;11.10;58.40;;;;;;5054328;28;20100;-71
2022/03/21 01:07:50;;;;;;;11.38;7.90;;;11.10;58.50;;;;;;5053913;28;20094;-73
2022/03/21 01:10:18;;;;;;;8.38;7.13;;;11.10;58.70;;;;;;5053771;28;20021;-71
2022/03/21 01:12:45;;;;;;;9.20;7.45;;;11.10;58.90;;;;;;5053463;28;20107;-72
2022/03/21 01:15:14;;;;;;;8.82;7.10;;;11.10;58.90;;;;;;5053732;28;20029;-73
2022/03/21 01:17:42;;;;;;;8.07;7.18;;;11.10;59.20;;;;;;5053692;28;20021;-71
2022/03/21 01:20:09;;;;;;;9.02;7.28;;;11.00;59.10;;;;;;5053775;28;20021;-74
2022/03/21 01:22:34;;;;;;;8.60;6.97;;;11.00;59.20;;;;;;5053651;28;20024;-72
2022/03/21 01:25:00;;;;;;;9.02;7.63;;;11.00;58.90;;;;;;5053458;28;20378;-72
2022/03/21 01:27:29;;;;;;;9.05;7.30;;;11.00;59.20;;;;;;5053556;28;20174;-70
2022/03/21 01:29:55;;;;;;;9.02;7.10;;;11.00;59.40;;;;;;5053488;28;20053;-71
2022/03/21 01:32:21;;;;;;;9.13;7.40;;;10.90;59.10;;;;;;5053523;28;20104;-73
2022/03/21 01:34:47;;;;;;;9.43;7.15;;;10.90;59.40;;;;;;5052172;28;20175;-70
2022/03/21 01:37:12;;;;;;;9.32;6.97;;;10.90;59.50;;;;;;5053741;28;20021;-72
2022/03/21 01:39:38;;;;;;;9.10;7.68;;;11.00;59.30;;;;;;5052811;28;20045;-71
2022/03/21 01:42:05;;;;;;;10.25;6.85;;;11.00;58.50;;;;;;5052417;28;20095;-70
2022/03/21 01:44:30;;;;;;;8.48;6.78;;;11.00;58.80;;;;;;5052535;28;20029;-71
2022/03/21 01:46:56;;;;;;;10.05;6.60;;;10.90;58.40;;;;;;5052428;28;20048;-70
2022/03/21 01:49:22;;;;;;;8.77;7.15;;;10.90;58.50;;;;;;5052366;28;20029;-71
2022/03/21 01:51:48;;;;;;;8.07;7.05;;;10.90;58.40;;;;;;5051044;28;20081;-72
2022/03/21 01:57:01;;;;;;;8.20;6.63;;;10.90;59.10;;;;;;5052243;28;20074;-72
2022/03/21 01:59:27;;;;;;;8.82;6.78;;;10.90;58.50;;;;;;5052339;28;20021;-71
2022/03/21 02:01:53;;;;;;;9.13;7.20;;;10.90;58.60;;;;;;5052425;28;20103;-69
2022/03/21 02:04:19;;;;;;;10.18;7.18;;;10.90;58.60;;;;;;5052357;28;20112;-73
2022/03/21 02:06:45;;;;;;;10.48;7.15;;;10.90;58.70;;;;;;5052080;28;20378;-72
2022/03/21 02:09:13;;;;;;;9.68;7.28;;;10.90;58.80;;;;;;5051982;28;20496;-72
2022/03/21 02:11:39;;;;;;;8.65;7.10;;;10.80;59.00;;;;;;5051856;28;20028;-72
2022/03/21 02:14:08;;;;;;;9.18;7.15;;;10.80;59.20;;;;;;5052024;28;20021;-71
2022/03/21 02:16:36;;;;;;;8.90;6.82;;;10.80;59.00;;;;;;5052283;28;20543;-70
2022/03/21 02:19:08;;;;;;;9.55;7.05;;;10.70;59.30;;;;;;5051923;28;20069;-72
2022/03/21 02:22:01;;;;;;;8.63;7.05;;;10.70;59.60;;;;;;5052083;28;20029;-69
2022/03/21 02:24:49;;;;;;;8.45;7.00;;;10.80;60.50;;;;;;5052954;28;20029;-71
2022/03/21 02:27:17;;;;;;;9.23;6.97;;;10.80;60.60;;;;;;5055379;28;20045;-73
2022/03/21 02:29:44;;;;;;;9.13;7.32;;;10.80;60.20;;;;;;5055254;28;20355;-72
2022/03/21 02:32:10;;;;;;;9.23;7.50;;;10.80;60.30;;;;;;5055309;28;20103;-70
2022/03/21 02:34:37;;;;;;;10.00;7.28;;;10.70;59.90;;;;;;5055510;28;20056;-72
2022/03/21 02:37:05;;;;;;;11.07;7.25;;;10.70;59.80;;;;;;5055422;28;20071;-71
2022/03/21 02:39:31;;;;;;;9.43;7.38;;;10.60;59.90;;;;;;5013631;28;1187722;-73
2022/03/21 02:41:57;;;;;;;8.73;7.10;;;10.60;60.00;;;;;;5056597;28;20155;-71
2022/03/21 02:44:23;;;;;;;8.70;7.15;;;10.60;60.00;;;;;;5056538;28;20471;-69
2022/03/21 02:46:49;;;;;;;9.15;7.07;;;10.50;59.90;;;;;;5056557;28;20028;-71
2022/03/21 02:49:15;;;;;;;9.90;7.53;;;10.50;60.00;;;;;;5056512;28;20581;-70
2022/03/21 02:51:42;;;;;;;9.65;6.78;;;10.50;60.10;;;;;;5056507;28;20531;-71
2022/03/21 02:54:09;;;;;;;8.75;7.20;;;10.40;60.40;;;;;;5056391;28;20106;-70
2022/03/21 02:56:35;;;;;;;8.93;6.95;;;10.50;60.40;;;;;;5056717;28;20028;-70
2022/03/21 02:59:02;;;;;;;9.75;7.15;;;10.50;60.40;;;;;;5056489;28;20464;-70
2022/03/21 03:01:27;;;;;;;9.35;7.32;;;10.50;60.00;;;;;;5056460;28;20099;-69
2022/03/21 03:03:53;;;;;;;9.05;7.38;;;10.50;60.30;;;;;;5056323;28;20044;-70
2022/03/21 03:06:19;;;;;;;9.00;7.65;;;10.50;60.50;;;;;;5056148;28;20458;-70
2022/03/21 03:08:45;;;;;;;10.80;7.18;;;10.40;60.60;;;;;;5056066;28;20390;-72
2022/03/21 03:11:11;;;;;;;9.80;7.60;;;10.30;60.80;;;;;;5056191;28;20025;-71
2022/03/21 03:13:37;;;;;;;9.85;7.55;;;10.30;61.60;;;;;;5056180;28;20028;-71
2022/03/21 03:16:04;;;;;;;9.10;6.90;;;10.30;61.50;;;;;;5056062;28;20359;-70
2022/03/21 03:18:30;;;;;;;8.65;6.90;;;10.30;61.50;;;;;;5056002;28;20021;-70
2022/03/21 03:20:57;;;;;;;8.85;6.97;;;10.20;61.30;;;;;;5056292;28;20021;-71
2022/03/21 03:23:25;;;;;;;9.60;7.40;;;10.20;61.60;;;;;;5055827;28;20473;-71
2022/03/21 03:26:02;;;;;;;10.30;6.63;;;10.10;61.80;;;;;;5055634;28;20025;-70
2022/03/21 03:28:29;;;;;;;9.15;7.07;;;10.10;61.60;;;;;;5055959;28;20552;-71
2022/03/21 03:30:55;;;;;;;8.77;6.82;;;9.90;62.40;;;;;;5054462;28;20025;-69
2022/03/21 03:33:22;;;;;;;9.30;7.10;;;9.90;62.50;;;;;;5055664;28;20104;-69
2022/03/21 03:35:48;;;;;;;10.15;7.57;;;9.90;62.40;;;;;;5055051;28;20112;-70
2022/03/21 03:38:17;;;;;;;8.73;6.90;;;9.90;62.30;;;;;;5055552;28;20151;-68
2022/03/21 03:40:43;;;;;;;9.48;7.30;;;9.90;63.20;;;;;;5055289;28;20128;-69
2022/03/21 03:43:16;;;;;;;9.27;7.13;;;9.80;62.60;;;;;;5055546;28;20028;-71
2022/03/21 03:45:42;;;;;;;8.80;6.80;;;9.80;62.60;;;;;;5055613;28;20020;-70
2022/03/21 03:48:09;;;;;;;9.23;7.15;;;9.80;62.50;;;;;;5055329;28;20183;-71
2022/03/21 03:50:35;;;;;;;11.45;7.50;;;9.70;62.30;;;;;;5055265;28;20102;-70
2022/03/21 03:53:01;;;;;;;9.50;7.20;;;9.70;62.70;;;;;;5055078;28;20060;-71
2022/03/21 03:55:27;;;;;;;10.90;7.95;;;9.70;63.00;;;;;;5055323;28;20029;-70
2022/03/21 03:57:54;;;;;;;9.88;7.60;;;9.80;63.50;;;;;;5055182;28;20036;-71
2022/03/21 04:00:20;;;;;;;10.95;7.47;;;9.80;63.50;;;;;;5055413;28;20454;-70
2022/03/21 04:05:30;;;;;;;12.27;8.13;;;9.70;63.50;;;;;;5055903;28;20032;-69
2022/03/21 04:07:56;;;;;;;10.35;7.72;;;9.70;63.40;;;;;;5055251;28;20052;-68
2022/03/21 04:10:22;;;;;;;12.18;7.50;;;9.70;63.10;;;;;;5054887;28;20067;-70
2022/03/21 04:12:49;;;;;;;9.23;7.35;;;9.70;63.20;;;;;;5055096;28;20025;-70
2022/03/21 04:15:16;;;;;;;8.98;7.75;;;9.70;63.20;;;;;;5054845;28;20037;-69
2022/03/21 04:17:41;;;;;;;14.02;8.20;;;9.60;63.20;;;;;;5055014;28;20076;-69
2022/03/21 04:20:08;;;;;;;11.07;8.20;;;9.50;63.40;;;;;;5054598;28;20385;-69
2022/03/21 04:22:35;;;;;;;12.93;8.90;;;9.60;64.10;;;;;;5054907;28;20398;-70
2022/03/21 04:25:01;;;;;;;12.70;9.40;;;9.60;64.30;;;;;;5054717;28;20367;-70
2022/03/21 04:27:26;;;;;;;13.15;9.73;;;9.50;65.10;;;;;;5054612;28;20041;-69
2022/03/21 04:29:52;;;;;;;14.82;10.18;;;9.50;65.30;;;;;;5054567;28;20405;-72
2022/03/21 04:32:18;;;;;;;11.85;9.88;;;9.50;66.20;;;;;;5054616;28;20397;-72
2022/03/21 04:34:43;;;;;;;12.18;9.82;;;9.50;66.80;;;;;;5054523;28;20028;-72
2022/03/21 04:37:10;;;;;;;12.75;9.82;;;9.50;67.20;;;;;;5054353;28;20040;-69
2022/03/21 04:39:35;;;;;;;11.93;10.52;;;9.50;67.90;;;;;;5054137;28;20155;-71
2022/03/21 04:42:01;;;;;;;13.93;11.15;;;9.50;67.40;;;;;;5054517;28;20025;-73
2022/03/21 04:44:27;;;;;;;13.48;11.32;;;9.50;68.20;;;;;;5054252;28;20060;-73
2022/03/21 04:46:53;;;;;;;17.08;11.30;;;9.60;67.90;;;;;;5053529;28;20469;-71
2022/03/21 04:49:19;;;;;;;13.50;11.35;;;9.50;68.20;;;;;;5054204;28;20031;-70
2022/03/21 04:51:44;;;;;;;17.48;12.75;;;9.50;68.40;;;;;;5054216;28;20466;-73
2022/03/21 04:54:10;;;;;;;14.60;11.05;;;9.40;68.10;;;;;;5052787;28;20036;-71
2022/03/21 04:56:36;;;;;;;13.35;11.05;;;9.40;68.40;;;;;;5054171;28;20474;-72
2022/03/21 04:59:02;;;;;;;14.20;10.95;;;9.40;68.50;;;;;;5054081;28;20111;-72
2022/03/21 05:01:28;;;;;;;12.60;10.55;;;9.40;68.50;;;;;;5054619;28;20096;-71
2022/03/21 05:03:55;;;;;;;13.57;10.93;;;9.40;68.90;;;;;;5054262;28;20052;-69
2022/03/21 05:06:20;;;;;;;13.77;11.57;;;9.30;68.90;;;;;;5053911;28;20017;-70
2022/03/21 05:08:46;;;;;;;15.13;11.73;;;9.30;69.60;;;;;;5053642;28;20029;-69
2022/03/21 05:11:12;;;;;;;13.95;11.52;;;9.30;69.30;;;;;;5053772;28;20025;-74
2022/03/21 05:13:37;;;;;;;14.43;11.10;;;9.30;69.60;;;;;;5053907;28;20025;-72
2022/03/21 05:16:05;;;;;;;15.13;12.00;;;9.30;69.60;;;;;;5053779;28;20028;-73
2022/03/21 05:18:34;;;;;;;17.17;11.90;;;9.30;69.90;;;;;;5053412;28;20029;-75
2022/03/21 05:21:03;;;;;;;18.00;13.35;;;9.30;69.70;;;;;;5054063;28;20021;-72
2022/03/21 05:31:42;;;;;;;16.00;12.75;;;9.40;70.90;;;;;;5053908;28;20036;-73
2022/03/21 05:36:54;;;;;;;16.50;13.55;;;9.30;70.70;;;;;;5053340;28;20087;-71
2022/03/21 05:39:22;;;;;;;16.85;13.13;;;9.30;70.40;;;;;;5053202;28;20080;-70
2022/03/21 05:41:51;;;;;;;16.70;13.25;;;9.10;70.40;;;;;;5054102;28;20116;-69
2022/03/21 05:44:16;;;;;;;17.17;13.13;;;9.10;70.60;;;;;;5052184;28;20040;-72
2022/03/21 05:46:42;;;;;;;17.50;12.88;;;9.20;70.30;;;;;;5053196;28;20032;-71
2022/03/21 05:49:08;;;;;;;16.58;12.60;;;9.20;69.50;;;;;;5053011;28;20100;-71
2022/03/21 05:51:40;;;;;;;17.63;13.77;;;9.20;69.40;;;;;;5053307;28;20117;-71
2022/03/21 05:54:09;;;;;;;17.10;12.63;;;9.20;68.90;;;;;;5051747;28;20052;-70
2022/03/21 05:56:35;;;;;;;15.98;13.05;;;9.20;69.00;;;;;;5053297;28;20029;-73
2022/03/21 06:01:48;;;;;;;18.00;12.48;;;9.30;68.20;;;;;;5012002;28;20057;-72
2022/03/21 06:04:15;;;;;;;20.27;13.93;;;9.30;68.10;;;;;;5053054;28;20040;-69
2022/03/21 06:06:41;;;;;;;18.45;13.48;;;9.30;67.80;;;;;;5052923;28;20117;-69
2022/03/21 06:09:07;;;;;;;17.95;13.05;;;9.30;67.60;;;;;;5052921;28;20036;-69
2022/03/21 06:11:34;;;;;;;20.63;13.73;;;9.20;67.20;;;;;;5051600;28;20029;-71
2022/03/21 06:14:00;;;;;;;16.17;13.27;;;9.20;66.50;;;;;;5053322;28;20492;-71
2022/03/21 06:16:26;;;;;;;17.52;13.50;;;9.30;66.70;;;;;;5053138;28;20029;-71
2022/03/21 06:18:52;;;;;;;20.05;14.38;;;9.40;66.60;;;;;;5052921;28;20371;-71
2022/03/21 06:21:17;;;;;;;22.15;14.48;;;9.40;66.30;;;;;;5052793;28;20109;-69
2022/03/21 06:23:43;;;;;;;18.45;13.50;;;9.50;66.90;;;;;;5052708;28;20398;-71
2022/03/21 06:26:09;;;;;;;17.13;13.25;;;9.70;66.50;;;;;;5052794;28;20049;-70
2022/03/21 06:28:36;;;;;;;20.42;13.23;;;10.00;64.50;;;;;;5052914;28;20017;-70
2022/03/21 06:31:02;;;;;;;16.63;12.55;;;10.10;62.70;;;;;;5052743;28;20078;-71
2022/03/21 06:33:29;;;;;;;15.25;12.00;;;10.10;62.10;;;;;;5053240;28;20416;-70
2022/03/21 06:35:59;;;;;;;20.13;12.40;;;10.20;60.70;;;;;;5052752;28;20382;-70
2022/03/21 06:38:25;;;;;;;17.67;11.93;;;10.30;60.30;;;;;;5052541;28;20040;-70
2022/03/21 06:40:51;;;;;;;16.77;11.80;;;10.50;59.30;;;;;;5052377;28;20041;-69
2022/03/21 06:43:20;;;;;;;18.13;12.77;;;10.60;58.80;;;;;;5052763;28;20503;-69
2022/03/21 06:45:52;;;;;;;16.75;12.57;;;10.70;58.30;;;;;;5052599;28;20024;-71
2022/03/21 06:48:20;;;;;;;15.95;12.10;;;10.90;58.20;;;;;;5052119;28;20041;-71
2022/03/21 06:50:48;;;;;;;16.40;11.63;;;11.10;57.80;;;;;;5052453;28;20025;-70
2022/03/21 06:53:16;;;;;;;20.23;13.48;;;11.20;57.40;;;;;;5052446;28;20025;-69
2022/03/21 06:55:42;;;;;;;17.60;13.73;;;11.20;57.20;;;;;;5052409;28;20483;-69
2022/03/21 06:58:11;;;;;;;15.68;12.80;;;11.30;57.50;;;;;;5052042;28;20025;-70
2022/03/21 07:00:47;;;;;;;19.23;13.20;;;11.30;58.40;;;;;;5052531;28;20029;-71
2022/03/21 07:03:17;;;;;;;17.77;14.40;;;11.40;58.20;;;;;;5052317;28;20031;-69
2022/03/21 07:05:43;;;;;;;18.30;13.68;;;11.40;57.90;;;;;;5051891;28;20107;-70
2022/03/21 07:08:09;;;;;;;21.38;13.95;;;11.50;58.00;;;;;;5051931;28;20040;-70
2022/03/21 07:10:35;;;;;;;18.58;12.65;;;11.60;57.80;;;;;;5053147;28;20029;-72
2022/03/21 07:13:01;;;;;;;17.13;13.15;;;11.80;57.40;;;;;;5053632;28;20060;-71
2022/03/21 07:15:28;;;;;;;17.40;13.25;;;11.80;56.50;;;;;;5054153;28;20037;-70
2022/03/21 07:17:55;;;;;;;16.27;12.57;;;11.70;57.10;;;;;;5055274;28;20017;-72
2022/03/21 07:20:21;;;;;;;16.00;12.48;;;11.70;56.50;;;;;;5055398;28;20129;-70
2022/03/21 07:22:46;;;;;;;17.85;13.63;;;11.70;56.10;;;;;;5055051;28;20537;-71
2022/03/21 07:25:12;;;;;;;18.58;14.23;;;12.00;56.50;;;;;;5055709;28;20025;-69
2022/03/21 07:27:38;;;;;;;18.33;13.32;;;12.10;55.80;;;;;;5055269;28;20069;-71
2022/03/21 07:30:05;;;;;;;17.50;12.57;;;12.10;55.30;;;;;;5055274;28;20215;-70
2022/03/21 07:32:31;;;;;;;12.75;10.95;;;12.20;55.40;;;;;;5055448;28;20036;-72
2022/03/21 07:34:58;;;;;;;15.20;11.48;;;12.20;54.40;;;;;;5055201;28;20037;-71
2022/03/21 07:37:23;;;;;;;18.85;11.43;;;12.10;53.60;;;;;;5055318;28;20110;-71
2022/03/21 07:39:49;;;;;;;17.92;11.95;;;12.10;53.70;;;;;;5054739;28;20037;-70
2022/03/21 07:42:16;;;;;;;15.13;11.20;;;12.10;53.60;;;;;;5054848;28;20471;-70
2022/03/21 07:47:27;;;;;;;18.80;11.63;;;12.00;53.10;;;;;;5054951;28;20052;-70
2022/03/21 07:49:56;;;;;;;12.95;10.10;;;12.00;52.90;;;;;;5054961;28;20096;-73
2022/03/21 07:52:23;;;;;;;14.50;10.95;;;12.00;52.80;;;;;;5055105;28;20108;-69
2022/03/21 07:54:52;;;;;;;17.60;11.15;;;12.10;52.70;;;;;;5054936;28;20032;-72
2022/03/21 07:57:19;;;;;;;13.80;10.07;;;12.10;52.20;;;;;;5054823;28;20032;-72
2022/03/21 07:59:45;;;;;;;14.02;10.82;;;12.10;51.60;;;;;;5054691;28;20029;-71
2022/03/21 08:02:10;;;;;;;13.32;9.43;;;12.20;51.60;;;;;;5054562;28;20035;-72
2022/03/21 08:04:37;;;;;;;13.80;9.25;;;12.30;50.20;;;;;;5054998;28;20496;-72
2022/03/21 08:07:03;;;;;;;16.63;9.70;;;12.30;49.20;;;;;;5054756;28;20029;-72
2022/03/21 08:09:28;;;;;;;15.48;8.85;;;12.30;48.60;;;;;;5054610;28;20029;-70
2022/03/21 08:11:56;;;;;;;13.10;7.95;;;12.30;47.40;;;;;;5054534;28;20083;-69
2022/03/21 08:14:21;;;;;;;13.30;8.40;;;12.30;47.50;;;;;;5054502;28;20025;-71
2022/03/21 08:16:47;;;;;;;12.48;9.05;;;12.20;46.10;;;;;;5054836;28;20154;-71
2022/03/21 08:19:13;;;;;;;14.55;8.27;;;12.20;45.80;;;;;;5054460;28;20017;-69
2022/03/21 08:21:38;;;;;;;17.13;9.32;;;12.10;45.60;;;;;;5053792;28;20052;-70
2022/03/21 08:24:06;;;;;;;11.65;8.10;;;12.20;46.20;;;;;;5053923;28;20040;-71
2022/03/21 08:26:35;;;;;;;14.35;8.07;;;12.20;45.50;;;;;;5054339;28;20110;-70
2022/03/21 08:29:01;;;;;;;15.10;8.93;;;12.20;44.40;;;;;;5054214;28;20032;-69
2022/03/21 08:31:27;;;;;;;15.05;7.95;;;12.30;45.00;;;;;;5054524;28;20021;-72
2022/03/21 08:33:52;;;;;;;19.05;7.70;;;12.40;44.60;;;;;;5054018;28;20079;-71
2022/03/21 08:36:18;;;;;;;9.73;7.35;;;12.40;44.70;;;;;;5054131;28;20373;-72
2022/03/21 08:38:44;;;;;;;12.90;8.02;;;12.50;45.10;;;;;;5054007;28;20021;-71
2022/03/21 08:41:11;;;;;;;11.95;7.43;;;12.60;45.10;;;;;;5052681;28;20493;-74
2022/03/21 08:43:37;;;;;;;11.95;7.00;;;12.70;44.20;;;;;;5054417;28;20394;-75
2022/03/21 08:46:02;;;;;;;14.95;6.38;;;12.70;44.00;;;;;;5053969;28;20017;-72
2022/03/21 08:51:13;;;;;;;11.50;5.63;;;12.80;41.80;;;;;;5053198;28;20447;-71
2022/03/21 08:53:39;;;;;;;8.90;6.10;;;12.90;41.70;;;;;;5053900;28;20024;-69
2022/03/21 08:56:05;;;;;;;10.05;5.55;;;12.90;40.40;;;;;;5053984;28;20086;-73
2022/03/21 08:58:30;;;;;;;13.25;6.00;;;12.80;39.70;;;;;;5053807;28;20021;-72
2022/03/21 09:00:57;;;;;;;13.27;7.13;;;12.70;39.90;;;;;;5053009;28;20044;-69
2022/03/21 09:03:22;;;;;;;11.88;5.22;;;12.80;40.70;;;;;;5053918;28;20386;-72
2022/03/21 09:05:48;;;;;;;10.38;5.68;;;12.80;39.00;;;;;;5053808;28;20025;-74
2022/03/21 09:08:15;;;;;;;9.13;5.60;;;12.90;39.60;;;;;;5053501;28;20119;-71
2022/03/21 09:10:41;;;;;;;8.25;5.25;;;12.90;38.60;;;;;;5053702;28;20032;-71
2022/03/21 09:13:07;;;;;;;8.07;5.50;;;13.00;39.20;;;;;;5053413;28;20032;-70
2022/03/21 09:15:34;;;;;;;12.57;6.38;;;12.90;38.20;;;;;;5053635;28;20045;-73
2022/03/21 09:18:01;;;;;;;11.10;6.75;;;12.90;38.90;;;;;;5053478;28;20033;-73
2022/03/21 09:20:27;;;;;;;9.10;6.38;;;13.00;39.50;;;;;;5053401;28;20115;-72
2022/03/21 09:22:52;;;;;;;10.45;6.25;;;13.00;39.00;;;;;;5053758;28;20104;-73
2022/03/21 09:25:18;;;;;;;10.38;6.70;;;13.10;39.70;;;;;;5053178;28;20025;-73
2022/03/21 09:27:44;;;;;;;8.93;6.55;;;13.10;39.20;;;;;;5053255;28;20033;-71
2022/03/21 09:30:11;;;;;;;10.23;6.65;;;13.10;38.20;;;;;;5053133;28;20394;-70
2022/03/21 09:32:37;;;;;;;13.50;7.32;;;13.10;38.40;;;;;;5051719;28;20474;-71
2022/03/21 09:35:05;;;;;;;12.10;6.55;;;13.10;38.30;;;;;;5052821;28;20088;-72
2022/03/21 09:37:32;;;;;;;11.38;6.40;;;13.20;38.80;;;;;;5051698;28;20086;-72
2022/03/21 09:39:58;;;;;;;10.10;6.22;;;13.30;38.90;;;;;;5052977;28;20410;-70
2022/03/21 09:42:25;;;;;;;16.13;6.50;;;13.20;38.00;;;;;;5052903;28;20029;-70
2022/03/21 09:44:53;;;;;;;8.25;5.72;;;13.20;38.70;;;;;;5052920;28;20132;-71
2022/03/21 09:50:09;;;;;;;10.65;6.55;;;13.30;38.50;;;;;;5052959;28;20114;-72
2022/03/21 09:52:35;;;;;;;8.73;5.57;;;13.40;38.20;;;;;;5051428;28;20414;-70
2022/03/21 09:55:02;;;;;;;8.82;5.32;;;13.60;37.70;;;;;;5052596;28;20074;-70
2022/03/21 09:57:29;;;;;;;53.15;9.73;;;13.60;36.90;;;;;;5052876;28;20078;-71
2022/03/21 09:59:57;;;;;;;14.77;5.15;;;13.70;36.60;;;;;;5052467;28;20116;-70
2022/03/21 10:02:24;;;;;;;9.52;5.63;;;13.80;36.50;;;;;;5053002;28;20021;-71
2022/03/21 10:04:50;;;;;;;8.82;5.03;;;13.90;35.90;;;;;;5053009;28;20441;-72
2022/03/21 10:07:26;;;;;;;6.80;4.95;;;13.90;34.90;;;;;;5052793;28;20471;-72
2022/03/21 10:10:05;;;;;;;8.38;5.10;;;14.10;36.30;;;;;;5052625;28;20440;-69
2022/03/21 10:12:31;;;;;;;9.20;5.32;;;14.20;35.90;;;;;;5052669;28;20025;-74
2022/03/21 10:14:59;;;;;;;9.15;4.60;;;14.30;34.50;;;;;;5052195;28;20117;-73
2022/03/21 10:17:25;;;;;;;11.07;5.20;;;14.30;34.60;;;;;;5052384;28;20032;-73
2022/03/21 10:19:53;;;;;;;8.32;5.00;;;14.40;34.40;;;;;;5052469;28;20017;-71
2022/03/21 10:22:37;;;;;;;7.75;5.03;;;14.50;33.80;;;;;;5052433;28;20033;-71
2022/03/21 10:25:11;;;;;;;;;;;14.40;33.20;;;;;;5052891;28;20028;-71
2022/03/21 10:27:41;;;;;;;7.85;4.10;;;14.40;29.30;;;;;;5052458;28;20389;-72
2022/03/21 10:30:18;;;;;;;13.55;4.80;;;14.40;33.10;;;;;;5052444;28;20130;-71
2022/03/21 10:32:46;;;;;;;9.68;4.13;;;14.50;31.90;;;;;;5052518;28;20032;-68
2022/03/21 10:35:21;;;;;;;20.42;5.15;;;14.70;33.00;;;;;;5051224;28;20480;-69
2022/03/21 10:38:00;;;;;;;6.70;4.68;;;14.70;30.40;;;;;;5052700;28;20041;-70
2022/03/21 10:40:33;;;;;;;8.57;4.18;;;14.80;32.30;;;;;;5050820;28;20045;-72
2022/03/21 10:43:05;;;;;;;10.27;4.82;;;14.90;30.00;;;;;;5052351;28;20029;-72
2022/03/21 10:46:04;;;;;;;7.22;5.03;;;14.90;31.30;;;;;;5053139;28;20029;-72
2022/03/21 10:48:32;;;;;;;8.85;4.63;;;15.00;30.80;;;;;;5053493;28;20128;-72
2022/03/21 10:51:03;;;;;;;7.90;4.60;;;15.20;32.10;;;;;;5056084;28;20025;-71
2022/03/21 10:53:39;;;;;;;7.15;4.82;;;15.30;32.50;;;;;;5056286;28;20025;-71
2022/03/21 10:56:08;;;;;;;6.90;4.32;;;15.40;31.00;;;;;;5056295;28;20441;-71
2022/03/21 10:58:38;;;;;;;9.27;4.20;;;15.60;32.00;;;;;;5055894;28;20067;-71
2022/03/21 11:01:20;;;;;;;6.97;3.67;;;15.60;30.80;;;;;;5055946;28;20030;-70
2022/03/21 11:03:49;;;;;;;7.07;3.72;;;15.70;29.50;;;;;;5055831;28;20032;-70
2022/03/21 11:06:16;;;;;;;8.60;4.43;;;15.70;29.50;;;;;;5056129;28;20053;-70
2022/03/21 11:08:44;;;;;;;7.00;3.88;;;15.80;29.30;;;;;;5055986;28;20037;-70
2022/03/21 11:11:10;;;;;;;7.45;4.65;;;15.80;28.20;;;;;;5056099;28;20021;-71
2022/03/21 11:13:39;;;;;;;9.70;4.15;;;15.80;28.20;;;;;;5055988;28;20025;-70
2022/03/21 11:16:05;;;;;;;9.15;4.90;;;15.90;29.60;;;;;;5056301;28;20378;-70
2022/03/21 11:18:31;;;;;;;6.55;4.30;;;16.00;30.00;;;;;;5055594;28;20025;-72
2022/03/21 11:20:58;;;;;;;6.95;4.07;;;16.10;28.80;;;;;;5055749;28;20036;-71
2022/03/21 11:23:27;;;;;;;8.23;4.30;;;16.20;28.60;;;;;;5055588;28;20021;-71
2022/03/21 11:25:56;;;;;;;8.32;4.60;;;16.30;28.70;;;;;;5055817;28;20109;-71
2022/03/21 11:28:43;;;;;;;8.13;4.47;;;16.40;28.60;;;;;;5055292;28;20037;-71
2022/03/21 11:31:24;;;;;;;7.18;4.40;;;16.40;28.50;;;;;;5055463;28;20020;-72
2022/03/21 11:34:07;;;;;;;8.00;4.05;;;16.40;27.80;;;;;;5055274;28;20029;-72
2022/03/21 11:36:33;;;;;;;7.18;4.22;;;16.30;27.70;;;;;;5055232;28;20442;-71
2022/03/21 11:39:01;;;;;;;10.48;4.75;;;16.10;26.10;;;;;;5055198;28;20056;-73
2022/03/21 11:41:31;;;;;;;6.90;4.30;;;16.20;27.70;;;;;;5055321;28;20056;-69
2022/03/21 11:44:14;;;;;;;9.05;4.38;;;16.20;27.80;;;;;;5054965;28;20071;-72
2022/03/21 11:46:42;;;;;;;8.73;4.68;;;16.30;28.00;;;;;;5054956;28;20108;-74
2022/03/21 11:49:19;;;;;;;8.77;4.60;;;16.40;26.80;;;;;;5055015;28;20033;-70
2022/03/21 11:51:56;;;;;;;6.32;4.43;;;16.30;27.40;;;;;;5054872;28;20038;-72
2022/03/21 11:54:27;;;;;;;7.50;4.85;;;16.30;26.80;;;;;;5054959;28;20467;-72
2022/03/21 11:57:15;;;;;;;12.48;5.03;;;16.30;26.30;;;;;;5054714;28;20032;-72
2022/03/21 11:59:41;;;;;;;7.35;4.60;;;16.40;28.00;;;;;;5054936;28;20115;-72
2022/03/21 12:02:10;;;;;;;10.63;5.82;;;16.50;27.00;;;;;;5054566;28;20068;-71
2022/03/21 12:04:37;;;;;;;11.60;5.32;;;16.50;27.00;;;;;;5053410;28;20033;-71
2022/03/21 12:07:12;;;;;;;7.13;4.82;;;16.60;26.70;;;;;;5054483;28;20036;-74
2022/03/21 12:09:46;;;;;;;7.50;4.80;;;16.70;26.80;;;;;;5054699;28;20075;-74
2022/03/21 12:12:12;;;;;;;8.43;5.05;;;16.70;26.20;;;;;;5054722;28;20086;-73
2022/03/21 12:14:56;;;;;;;9.88;5.10;;;16.50;25.80;;;;;;5054546;28;20044;-70
2022/03/21 12:17:22;;;;;;;19.42;5.30;;;16.70;27.50;;;;;;5053797;28;20029;-73
2022/03/21 12:19:47;;;;;;;7.63;4.50;;;16.90;26.90;;;;;;5054440;28;20036;-71
2022/03/21 12:22:28;;;;;;;9.27;5.07;;;17.00;26.40;;;;;;5054466;28;20025;-72
2022/03/21 12:25:00;;;;;;;9.77;4.93;;;17.00;26.50;;;;;;5054107;28;20025;-70
2022/03/21 12:27:42;;;;;;;11.23;5.00;;;17.10;27.40;;;;;;5054696;28;20037;-72
2022/03/21 12:30:30;;;;;;;7.30;4.40;;;17.20;27.10;;;;;;5054587;28;20029;-69
2022/03/21 12:33:09;;;;;;;7.53;4.80;;;17.20;26.20;;;;;;5054393;28;20025;-72
2022/03/21 12:35:42;;;;;;;7.45;4.82;;;17.10;27.50;;;;;;5054402;28;20493;-71
2022/03/21 12:38:14;;;;;;;7.80;5.40;;;17.10;26.40;;;;;;5054225;28;20062;-72
2022/03/21 12:40:52;;;;;;;9.20;4.65;;;16.90;25.80;;;;;;5054122;28;20454;-71
2022/03/21 12:43:22;;;;;;;10.98;4.97;;;16.80;26.80;;;;;;5054244;28;20029;-72
2022/03/21 12:45:50;;;;;;;9.82;4.95;;;16.90;26.40;;;;;;5054012;28;20028;-73
2022/03/21 12:48:17;;;;;;;8.00;4.90;;;16.90;26.00;;;;;;5053747;28;20041;-71
2022/03/21 12:50:49;;;;;;;6.95;4.85;;;17.00;26.00;;;;;;5053958;28;20013;-70
2022/03/21 12:53:21;;;;;;;7.90;5.40;;;17.10;25.80;;;;;;5054280;28;20450;-72
2022/03/21 12:56:00;;;;;;;9.20;4.95;;;17.30;26.60;;;;;;5054157;28;20024;-72
2022/03/21 12:58:25;;;;;;;8.82;5.18;;;17.50;26.30;;;;;;5053782;28;20028;-71
2022/03/21 13:00:54;;;;;;;6.72;5.10;;;17.60;26.10;;;;;;5053839;28;20517;-71
2022/03/21 13:03:20;;;;;;;7.60;4.85;;;17.60;25.90;;;;;;5053811;28;20378;-71
2022/03/21 13:11:31;;;;;;;7.63;4.55;;;17.30;25.10;;;;;;5053720;28;20040;-71
2022/03/21 13:14:05;;;;;;;7.65;4.95;;;17.10;25.60;;;;;;5053442;28;20056;-69
2022/03/21 13:16:38;;;;;;;7.95;5.38;;;17.10;25.80;;;;;;5052659;28;20025;-70
2022/03/21 13:19:09;;;;;;;7.57;5.00;;;17.20;25.40;;;;;;5053578;28;20335;-71